Terminal Aerodrome Forecast
Issued by NWS Charleston, WV

Current Version | Previous Version | Graphics & Text | Print | Product List | Glossary On
Versions: 1 2 3 4 5 6 7 8 9 10 11 12 13 14 15 16 17 18 19 20 21 22 23 24 25 26 27
000
FTUS41 KRLX 202100 AAA
TAFHTS
TAF AMD
KHTS 202111Z 2021/2118 22006KT P6SM FEW045 SCT080
     FM202300 19005KT P6SM SCT200
     FM210700 21004KT 6SM BR SCT030
     FM210800 21002KT 4SM BR BKN080
     FM211000 21007KT P6SM BKN025
     FM211500 22008KT P6SM VCTS BKN025CB=

USA.gov is the U.S. government's official web portal to all federal, state and local government web resources and services.